Miami Beach, Florida
Current Conditions -  °F | °C
As of 9:53 AM on Thursday 30 Oct 2014 (Local Time) from KMIA Reporting Station
Few Clouds Few Clouds  
Wind Chill: 27°   Ceiling: Unl
Heat Index: 28°   Visibility: 10mi
Dew Point: 19°   Wind: 0mph
Humidity: 62%   Direction: NA
Pressure: 29.99"   Gusts: NA
Location:  25.81°N, 80.13°W
Report Text: KMIA 301353Z 00000KT 10SM FEW030 27/19 A2999 RMK AO2 SLP155 TCU DSNT NE-SE T02670189
Loading
Personal Weather Stations






























Interactive Weather Map
Tropical Storm Tracking
New forecast layout! Learn more

10-Day Weather Forecast

Advertisements
Track Severe Weather on mobile